Time;durP1;ratioP1;P1;durP2;ratioP2;P2;SDS_P1;SDS_P2;PMS_P1;PMS_P2;Temp;Humidity;BMP_temperature;BMP_pressure;BME280_temperature;BME280_humidity;BME280_pressure;Samples;Min_cycle;Max_cycle;Signal;HPM_P1;HPM_P2
2023/08/07 00:02:12;;;;;;;6.53;2.70;;;;;;;17.18;76.48;99143.66;4970765;28;20421;-85
2023/08/07 00:04:38;;;;;;;9.25;3.00;;;;;;;17.16;76.36;99135.84;4973131;28;20055;-84
2023/08/07 00:07:05;;;;;;;11.45;2.90;;;;;;;17.17;76.60;99140.19;4965953;28;20059;-84
2023/08/07 00:09:31;;;;;;;6.05;2.78;;;;;;;17.16;76.49;99138.50;4973276;28;20061;-85
2023/08/07 00:11:58;;;;;;;7.28;2.42;;;;;;;17.18;76.52;99143.66;4973500;28;20061;-84
2023/08/07 00:14:24;;;;;;;7.78;3.03;;;;;;;17.17;76.40;99140.19;4973405;28;20054;-84
2023/08/07 00:16:51;;;;;;;6.97;2.53;;;;;;;17.17;76.50;99136.69;4973118;28;20089;-84
2023/08/07 00:19:17;;;;;;;8.63;3.15;;;;;;;17.17;76.37;99142.00;4973811;28;20055;-84
2023/08/07 00:21:44;;;;;;;8.68;3.35;;;;;;;17.18;76.36;99141.00;4969766;28;20129;-84
2023/08/07 00:24:11;;;;;;;6.63;3.25;;;;;;;17.17;76.65;99134.88;4966061;28;20520;-85
2023/08/07 00:26:37;;;;;;;6.55;3.10;;;;;;;17.18;76.22;99141.00;4973319;28;20043;-85
2023/08/07 00:29:04;;;;;;;8.82;3.42;;;;;;;17.16;76.50;99133.19;4964116;28;20517;-85
2023/08/07 00:31:31;;;;;;;7.13;2.92;;;;;;;17.17;76.46;99139.34;4972510;28;20055;-85
2023/08/07 00:33:59;;;;;;;7.60;3.30;;;;;;;17.15;76.54;99136.81;4956388;28;20054;-84
2023/08/07 00:36:28;;;;;;;8.15;3.30;;;;;;;17.16;76.68;99138.50;4955997;28;20402;-85
2023/08/07 00:38:54;;;;;;;6.68;3.10;;;;;;;17.17;76.66;99136.69;4972924;28;20051;-84
2023/08/07 00:41:24;;;;;;;9.98;3.97;;;;;;;17.17;76.49;99142.00;4956417;28;20061;-85
2023/08/07 00:43:50;;;;;;;8.40;4.20;;;;;;;17.17;76.51;99142.00;4952950;29;20053;-85
2023/08/07 00:46:17;;;;;;;7.32;4.60;;;;;;;17.17;76.48;99142.00;4969821;28;20077;-85
2023/08/07 00:48:44;;;;;;;6.28;4.22;;;;;;;17.16;76.38;99143.00;4955851;28;20047;-84
2023/08/07 00:51:11;;;;;;;11.63;4.72;;;;;;;17.14;76.42;99142.28;4972802;28;20560;-85
2023/08/07 00:53:42;;;;;;;9.65;4.63;;;;;;;17.14;76.59;99150.25;4973536;28;20050;-84
2023/08/07 00:56:08;;;;;;;9.88;5.22;;;;;;;17.13;76.57;99140.63;4961630;28;20055;-84
2023/08/07 00:58:36;;;;;;;8.95;5.65;;;;;;;17.13;76.49;99143.28;4971485;28;20084;-85
2023/08/07 01:01:02;;;;;;;9.82;5.90;;;;;;;17.14;76.38;99144.94;4973235;28;20050;-84
2023/08/07 01:03:29;;;;;;;12.38;5.90;;;;;;;17.14;76.59;99139.63;4973353;28;20477;-85
2023/08/07 01:05:55;;;;;;;8.65;6.22;;;;;;;17.13;76.58;99138.81;4973706;28;20054;-84
2023/08/07 01:08:24;;;;;;;8.52;6.20;;;;;;;17.13;76.43;99127.31;4964875;28;20120;-84
2023/08/07 01:11:34;;;;;;;8.38;6.45;;;;;;;17.09;76.57;99139.22;4971576;28;20134;-84
2023/08/07 01:17:14;;;;;;;10.25;6.25;;;;;;;17.11;76.03;99137.25;4950703;29;20525;-78
2023/08/07 01:19:41;;;;;;;8.55;6.70;;;;;;;17.13;76.25;99143.28;4935170;29;20075;-78
2023/08/07 01:22:08;;;;;;;10.30;6.80;;;;;;;17.13;76.38;99140.63;4952088;29;20089;-79
2023/08/07 01:24:36;;;;;;;12.25;7.88;;;;;;;17.12;76.72;99144.25;4952222;28;20055;-81
2023/08/07 01:27:12;;;;;;;11.60;7.90;;;;;;;17.11;76.54;99143.41;4934915;29;20114;-80
2023/08/07 01:30:11;;;;;;;13.32;7.55;;;;;;;17.09;76.70;99144.56;4952017;28;20051;-78
2023/08/07 01:32:58;;;;;;;11.23;8.02;;;;;;;17.11;76.48;99134.59;4941560;28;20052;-79
2023/08/07 01:35:29;;;;;;;13.75;8.85;;;;;;;17.15;76.36;99141.28;4953026;29;20129;-79
2023/08/07 01:37:58;;;;;;;8.38;7.28;;;;;;;17.15;76.55;99152.78;4952833;28;20054;-79
2023/08/07 01:40:26;;;;;;;14.35;7.57;;;;;;;17.14;76.63;99143.13;4952625;28;20154;-79
2023/08/07 01:42:53;;;;;;;9.65;7.40;;;;;;;17.14;76.66;99136.97;4952460;29;20074;-78
2023/08/07 01:45:27;;;;;;;9.50;6.90;;;;;;;17.11;76.32;99134.59;4952773;29;20062;-79
2023/08/07 01:47:54;;;;;;;10.18;6.53;;;;;;;17.13;76.69;99144.13;4952733;29;20062;-78
2023/08/07 01:50:21;;;;;;;15.25;7.18;;;;;;;17.12;76.54;99142.44;4952620;28;20542;-79
2023/08/07 01:52:48;;;;;;;9.77;6.97;;;;;;;17.13;76.68;99143.28;4943819;29;20043;-78
2023/08/07 01:55:19;;;;;;;11.50;6.65;;;;;;;17.12;76.88;99145.09;4952724;28;20106;-79
2023/08/07 01:57:45;;;;;;;10.13;7.32;;;;;;;17.13;76.97;99127.31;4952462;28;20055;-79
2023/08/07 02:00:12;;;;;;;8.52;6.85;;;;;;;17.13;76.66;99132.63;4952751;29;20087;-79
2023/08/07 02:02:38;;;;;;;9.73;6.20;;;;;;;17.13;76.80;99138.81;4952113;28;20507;-78
2023/08/07 02:05:05;;;;;;;8.60;6.70;;;;;;;17.13;77.03;99137.97;4951461;29;20051;-80
2023/08/07 02:07:32;;;;;;;7.57;6.85;;;;;;;17.14;76.84;99139.63;4952203;29;20130;-79
2023/08/07 02:09:58;;;;;;;12.63;6.50;;;;;;;17.15;76.75;99143.94;4952465;28;20416;-79
2023/08/07 02:12:26;;;;;;;10.15;6.05;;;;;;;17.14;76.61;99142.28;4952295;29;20047;-79
2023/08/07 02:14:53;;;;;;;11.73;5.95;;;;;;;17.14;76.65;99139.63;4952603;28;20058;-78
2023/08/07 02:17:22;;;;;;;8.80;5.63;;;;;;;17.14;76.76;99144.94;4952267;29;20061;-78
2023/08/07 02:19:48;;;;;;;8.45;5.85;;;;;;;17.15;76.97;99139.47;4935364;29;20047;-80
2023/08/07 02:22:15;;;;;;;13.88;6.57;;;;;;;17.16;76.88;99140.34;4952187;29;20055;-80
2023/08/07 02:24:42;;;;;;;7.85;6.47;;;;;;;17.16;76.90;99148.31;4952514;29;20146;-79
2023/08/07 02:27:08;;;;;;;7.75;6.00;;;;;;;17.15;76.59;99147.47;4952321;29;20074;-79
2023/08/07 02:29:35;;;;;;;9.60;6.88;;;;;;;17.15;76.68;99157.25;4952361;29;20055;-79
2023/08/07 02:32:02;;;;;;;9.52;6.68;;;;;;;17.15;76.51;99152.78;4952117;29;20481;-79
2023/08/07 02:34:30;;;;;;;10.30;6.15;;;;;;;17.15;76.42;99149.28;4952142;29;20078;-80
2023/08/07 02:36:57;;;;;;;9.93;6.50;;;;;;;17.14;76.62;99147.59;4950717;28;20047;-78
2023/08/07 02:39:24;;;;;;;9.20;6.57;;;;;;;17.14;76.71;99151.13;4952483;29;20126;-79
2023/08/07 02:41:51;;;;;;;8.85;6.60;;;;;;;17.13;76.73;99146.78;4935025;29;20142;-78
2023/08/07 02:44:19;;;;;;;11.35;6.82;;;;;;;17.14;76.53;99152.91;4948044;28;20109;-79
2023/08/07 02:46:46;;;;;;;7.60;5.95;;;;;;;17.14;76.54;99155.59;4951888;29;20109;-81
2023/08/07 02:49:13;;;;;;;8.77;5.68;;;;;;;17.12;76.75;99147.75;4952203;29;20067;-81
2023/08/07 02:51:39;;;;;;;11.70;6.30;;;;;;;17.12;76.75;99147.75;4952040;29;20795;-80
2023/08/07 02:54:06;;;;;;;8.35;5.95;;;;;;;17.12;76.59;99149.59;4951684;29;20062;-78
2023/08/07 02:56:33;;;;;;;7.32;5.43;;;;;;;17.12;76.73;99149.59;4951895;28;20051;-80
2023/08/07 02:59:01;;;;;;;6.45;5.47;;;;;;;17.11;76.67;99143.41;4952190;29;20126;-79
2023/08/07 03:01:28;;;;;;;6.53;5.28;;;;;;;17.10;76.78;99149.72;4952038;29;20055;-79
2023/08/07 03:03:55;;;;;;;6.10;5.05;;;;;;;17.11;76.72;99139.91;4951723;28;20061;-79
2023/08/07 03:06:22;;;;;;;5.40;4.85;;;;;;;17.10;76.85;99136.44;4951432;29;20111;-79
2023/08/07 03:08:48;;;;;;;6.05;5.07;;;;;;;17.11;76.58;99142.56;4951881;28;20083;-79
2023/08/07 03:11:15;;;;;;;9.30;5.32;;;;;;;17.12;76.94;99142.44;4952189;29;20051;-80
2023/08/07 03:13:44;;;;;;;8.00;5.03;;;;;;;17.12;76.76;99144.25;4951957;28;20131;-79
2023/08/07 03:16:10;;;;;;;7.90;4.93;;;;;;;17.12;76.79;99144.25;4955163;28;20055;-80
2023/08/07 03:18:37;;;;;;;6.88;4.95;;;;;;;17.11;76.79;99140.75;4954960;28;20134;-79
2023/08/07 03:21:03;;;;;;;10.60;5.43;;;;;;;17.11;76.72;99132.78;4955562;29;20106;-78
2023/08/07 03:23:30;;;;;;;6.28;5.00;;;;;;;17.13;76.93;99137.97;4955031;29;20051;-79
2023/08/07 03:26:10;;;;;;;6.35;5.57;;;;;;;17.11;76.70;99153.22;4955145;29;20109;-80
2023/08/07 03:28:46;;;;;;;8.55;5.13;;;;;;;17.14;76.81;99143.13;4953968;29;20048;-78
2023/08/07 03:31:14;;;;;;;10.82;5.38;;;;;;;17.14;76.56;99140.47;4955113;29;20146;-79
2023/08/07 03:33:41;;;;;;;7.85;5.47;;;;;;;17.15;76.69;99141.28;4954618;29;20051;-79
2023/08/07 03:36:07;;;;;;;9.55;5.07;;;;;;;17.14;76.83;99144.94;4955154;29;20055;-81
2023/08/07 03:38:34;;;;;;;9.80;5.70;;;;;;;17.13;76.56;99144.13;4954820;29;20043;-78
2023/08/07 03:41:01;;;;;;;8.68;5.47;;;;;;;17.14;76.61;99144.94;4954995;29;20062;-79
2023/08/07 03:43:27;;;;;;;8.63;5.40;;;;;;;17.14;76.57;99147.59;4954598;28;20412;-81
2023/08/07 03:45:57;;;;;;;6.95;5.30;;;;;;;17.12;76.56;99150.41;4954906;29;20195;-81
2023/08/07 03:48:27;;;;;;;8.07;5.28;;;;;;;17.13;76.68;99149.44;4954801;28;20047;-80
2023/08/07 03:51:02;;;;;;;6.50;4.53;;;;;;;17.11;76.56;99151.41;4954665;28;20497;-79
2023/08/07 03:53:29;;;;;;;6.18;4.32;;;;;;;17.13;76.64;99157.41;4954379;29;20050;-78
2023/08/07 03:55:55;;;;;;;4.65;4.22;;;;;;;17.14;76.65;99156.44;4954339;29;20098;-78
2023/08/07 03:58:22;;;;;;;5.65;4.60;;;;;;;17.14;76.54;99167.06;4954304;28;20051;-79
2023/08/07 04:00:51;;;;;;;6.65;4.88;;;;;;;17.14;76.49;99150.25;4954646;28;20262;-81
2023/08/07 04:03:19;;;;;;;7.45;4.40;;;;;;;17.14;76.40;99150.25;4954730;29;20097;-79
2023/08/07 04:05:46;;;;;;;7.35;4.55;;;;;;;17.15;76.59;99146.63;4954286;28;20047;-78
2023/08/07 04:08:13;;;;;;;7.88;4.85;;;;;;;17.15;76.69;99149.28;4953181;29;20123;-80
2023/08/07 04:10:39;;;;;;;5.72;4.72;;;;;;;17.16;76.60;99150.97;4953771;28;20051;-80
2023/08/07 04:13:06;;;;;;;9.00;5.35;;;;;;;17.17;76.70;99147.31;4954320;29;20192;-79
2023/08/07 04:15:32;;;;;;;9.50;5.10;;;;;;;17.18;76.41;99151.66;4954235;29;20047;-78
2023/08/07 04:17:59;;;;;;;9.50;5.07;;;;;;;17.18;76.53;99146.34;4953115;28;20087;-80
2023/08/07 04:20:26;;;;;;;6.05;4.00;;;;;;;17.16;76.57;99145.66;4954229;29;20047;-80
2023/08/07 04:22:52;;;;;;;6.60;3.58;;;;;;;17.16;76.48;99151.78;4954116;29;20047;-81
2023/08/07 04:25:19;;;;;;;8.68;3.90;;;;;;;17.16;76.38;99169.59;4953208;28;20106;-81
2023/08/07 04:27:45;;;;;;;7.65;3.50;;;;;;;17.17;76.63;99173.91;4953522;29;20416;-80
2023/08/07 04:30:12;;;;;;;7.90;4.13;;;;;;;17.15;76.42;99163.41;4953750;29;20055;-79
2023/08/07 04:32:39;;;;;;;8.57;3.85;;;;;;;17.15;76.56;99167.88;4953869;29;20298;-81
2023/08/07 04:35:06;;;;;;;8.68;4.40;;;;;;;17.15;76.37;99176.72;4953899;29;20142;-79
2023/08/07 04:37:32;;;;;;;8.52;3.30;;;;;;;17.15;76.58;99170.56;4953357;29;20047;-79
2023/08/07 04:40:00;;;;;;;9.75;4.70;;;;;;;17.15;76.61;99173.22;4953770;28;20591;-79
2023/08/07 04:42:27;;;;;;;10.00;3.72;;;;;;;17.16;76.54;99172.25;4954018;29;20129;-81
2023/08/07 04:44:54;;;;;;;10.77;3.80;;;;;;;17.17;76.23;99171.25;4953653;29;20051;-80
2023/08/07 04:47:20;;;;;;;10.95;3.13;;;;;;;17.17;76.39;99165.94;4936488;29;20054;-79
2023/08/07 04:49:47;;;;;;;8.40;2.85;;;;;;;17.18;76.37;99179.09;4953330;29;20043;-80
2023/08/07 04:52:13;;;;;;;10.52;3.28;;;;;;;17.18;76.34;99172.94;4952392;28;20043;-80
2023/08/07 04:54:51;;;;;;;8.00;3.03;;;;;;;17.18;76.29;99184.41;4953663;28;20150;-80
2023/08/07 04:57:17;;;;;;;8.48;2.63;;;;;;;17.18;76.10;99173.78;4953454;29;20044;-79
2023/08/07 04:59:44;;;;;;;10.85;2.95;;;;;;;17.19;76.12;99179.91;4953027;29;20590;-78
2023/08/07 05:02:10;;;;;;;7.82;2.90;;;;;;;17.20;76.24;99170.97;4952021;28;20087;-79
2023/08/07 05:04:37;;;;;;;8.07;3.40;;;;;;;17.19;76.22;99178.09;4953402;29;20059;-78
2023/08/07 05:07:04;;;;;;;8.38;2.90;;;;;;;17.18;76.38;99188.88;4952916;29;20051;-78
2023/08/07 05:09:31;;;;;;;5.07;2.22;;;;;;;17.20;76.07;99178.94;4953218;28;20051;-79
2023/08/07 05:11:57;;;;;;;6.22;2.00;;;;;;;17.21;76.24;99187.75;4953363;29;20133;-79
2023/08/07 05:14:24;;;;;;;7.38;2.45;;;;;;;17.22;76.10;99189.41;4952515;29;20508;-79
2023/08/07 05:16:51;;;;;;;7.72;2.40;;;;;;;17.23;76.11;99191.94;4953000;29;20055;-80
2023/08/07 05:19:17;;;;;;;6.53;2.40;;;;;;;17.25;75.97;99191.81;4935761;29;20066;-80
2023/08/07 05:21:44;;;;;;;9.70;2.30;;;;;;;17.24;75.87;99193.63;4952530;28;20043;-81
2023/08/07 05:24:12;;;;;;;7.07;2.10;;;;;;;17.25;76.04;99197.13;4953356;29;20175;-81
2023/08/07 05:26:38;;;;;;;6.18;2.10;;;;;;;17.25;76.07;99194.47;4951928;28;20053;-81
2023/08/07 05:29:06;;;;;;;6.53;2.20;;;;;;;17.26;76.07;99196.97;4951988;29;20143;-80
2023/08/07 05:31:33;;;;;;;5.70;2.08;;;;;;;17.26;75.76;99201.44;4951873;29;20058;-80
2023/08/07 05:34:00;;;;;;;6.60;2.60;;;;;;;17.26;76.05;99202.31;4951741;28;20088;-81
2023/08/07 05:36:27;;;;;;;8.02;2.70;;;;;;;17.28;76.07;99200.34;4951641;28;20464;-80
2023/08/07 05:38:53;;;;;;;6.57;2.55;;;;;;;17.28;75.90;99205.66;4952000;29;20130;-79
2023/08/07 05:41:20;;;;;;;4.07;2.28;;;;;;;17.30;76.12;99209.00;4952014;29;20082;-81
2023/08/07 05:43:46;;;;;;;6.65;2.47;;;;;;;17.32;76.27;99195.56;4952817;28;20614;-79
2023/08/07 05:46:13;;;;;;;8.30;2.88;;;;;;;17.34;75.56;99198.09;4952783;29;20059;-82
2023/08/07 05:48:39;;;;;;;12.40;3.38;;;;;;;17.35;76.01;99199.75;4952723;28;20055;-81
2023/08/07 05:51:07;;;;;;;6.18;2.58;;;;;;;17.35;75.84;99203.25;4952651;29;20047;-79
2023/08/07 05:53:35;;;;;;;9.20;2.50;;;;;;;17.36;76.07;99201.44;4952430;28;20066;-82
2023/08/07 05:56:01;;;;;;;5.47;2.10;;;;;;;17.38;76.08;99207.44;4952452;29;20059;-79
2023/08/07 05:58:28;;;;;;;5.32;2.35;;;;;;;17.37;75.93;99203.94;4952341;28;20047;-80
2023/08/07 06:00:54;;;;;;;5.53;2.33;;;;;;;17.39;75.77;99201.16;4952427;29;20081;-80
2023/08/07 06:03:21;;;;;;;9.80;2.88;;;;;;;17.39;76.02;99201.16;4952636;29;20389;-80
2023/08/07 06:05:47;;;;;;;5.30;2.83;;;;;;;17.39;76.08;99215.28;4952765;29;20098;-80
2023/08/07 06:08:14;;;;;;;6.50;3.00;;;;;;;17.41;76.55;99215.13;4952466;29;20047;-82
2023/08/07 06:10:41;;;;;;;5.63;3.05;;;;;;;17.44;76.70;99214.84;4952383;29;20055;-82
2023/08/07 06:13:08;;;;;;;8.00;3.13;;;;;;;17.47;76.76;99229.66;4959364;28;20059;-77
2023/08/07 06:15:40;;;;;;;8.40;2.90;;;;;;;17.52;76.57;99224.75;4952651;29;20055;-81
2023/08/07 06:18:06;;;;;;;8.32;3.00;;;;;;;17.54;76.68;99225.47;4952275;28;20302;-81
2023/08/07 06:20:34;;;;;;;24.80;3.75;;;;;;;17.57;76.60;99226.00;4952662;28;20127;-81
2023/08/07 06:23:01;;;;;;;5.43;2.53;;;;;;;17.63;76.67;99226.38;4952248;29;20055;-82
2023/08/07 06:25:28;;;;;;;10.23;3.03;;;;;;;17.66;76.19;99231.41;4952522;29;20102;-81
2023/08/07 06:27:54;;;;;;;6.20;2.30;;;;;;;17.68;75.97;99232.94;4952055;29;20086;-79
2023/08/07 06:30:21;;;;;;;6.60;2.30;;;;;;;17.70;75.86;99236.31;4952354;29;20528;-79
2023/08/07 06:32:48;;;;;;;5.40;2.22;;;;;;;17.72;75.75;99238.84;4952162;28;20082;-79
2023/08/07 06:35:14;;;;;;;6.28;2.33;;;;;;;17.75;76.26;99238.53;4952428;29;20050;-79
2023/08/07 06:37:41;;;;;;;13.18;2.60;;;;;;;17.79;76.09;99244.41;4952678;29;20040;-80
2023/08/07 06:40:09;;;;;;;6.57;2.45;;;;;;;17.81;76.22;99253.94;4952879;29;20062;-80
2023/08/07 06:42:36;;;;;;;7.43;2.30;;;;;;;17.86;76.40;99249.97;4952381;29;20664;-79
2023/08/07 06:45:03;;;;;;;11.10;2.40;;;;;;;17.90;76.11;99254.84;4949692;29;20055;-81
2023/08/07 06:47:29;;;;;;;5.57;1.92;;;;;;;17.94;76.12;99258.91;4952096;29;20070;-80
2023/08/07 06:49:56;;;;;;;6.38;2.00;;;;;;;18.00;76.47;99259.28;4954447;28;20053;-79
2023/08/07 06:52:23;;;;;;;6.75;1.77;;;;;;;18.03;76.15;99251.84;4955740;28;20464;-81
2023/08/07 06:54:49;;;;;;;7.43;1.90;;;;;;;18.10;76.05;99250.28;4955715;29;20055;-80
2023/08/07 06:57:16;;;;;;;4.32;1.65;;;;;;;18.16;76.04;99256.84;4955523;29;20047;-79
2023/08/07 06:59:42;;;;;;;3.63;1.63;;;;;;;18.22;75.74;99255.41;4955989;29;20051;-80
2023/08/07 07:02:09;;;;;;;5.50;1.92;;;;;;;18.28;75.87;99260.13;4955361;28;20063;-80
2023/08/07 07:04:36;;;;;;;5.95;2.08;;;;;;;18.33;75.73;99260.53;4955167;29;20504;-79
2023/08/07 07:07:03;;;;;;;5.70;2.03;;;;;;;18.38;75.22;99269.91;4954941;29;20047;-79
2023/08/07 07:09:30;;;;;;;4.50;1.63;;;;;;;18.40;74.98;99274.09;4955513;29;20480;-80
2023/08/07 07:11:56;;;;;;;7.43;2.60;;;;;;;18.42;74.55;99272.09;4955336;29;20082;-80
2023/08/07 07:14:23;;;;;;;5.82;2.20;;;;;;;18.42;74.06;99273.94;4993606;23;20496;-77
2023/08/07 07:16:50;;;;;;;4.82;2.00;;;;;;;18.41;74.66;99267.78;4974541;28;20111;-82
2023/08/07 07:19:16;;;;;;;8.90;2.33;;;;;;;18.42;74.75;99266.78;4974613;28;20078;-77
2023/08/07 07:22:10;;;;;;;5.75;2.05;;;;;;;18.42;74.47;99271.25;4974880;28;20042;-77
2023/08/07 07:24:38;;;;;;;5.22;2.40;;;;;;;18.51;75.04;99270.38;4957545;28;20046;-77
2023/08/07 07:27:05;;;;;;;5.22;2.22;;;;;;;18.53;74.77;99278.19;4974213;28;20051;-78
2023/08/07 07:29:31;;;;;;;9.02;2.45;;;;;;;18.53;74.12;99271.06;4956545;28;20133;-78
2023/08/07 07:31:58;;;;;;;6.63;2.20;;;;;;;18.54;74.03;99279.91;4974325;28;20093;-76
2023/08/07 07:34:25;;;;;;;7.05;2.42;;;;;;;18.54;74.23;99291.38;4969716;28;20048;-79
2023/08/07 07:36:53;;;;;;;6.55;2.40;;;;;;;18.55;74.16;99287.75;4937434;28;20504;-79
2023/08/07 07:39:21;;;;;;;11.85;2.50;;;;;;;18.58;74.71;99298.09;4953720;28;20732;-79
2023/08/07 07:41:47;;;;;;;7.95;2.42;;;;;;;18.63;74.77;99308.31;4937693;29;20050;-77
2023/08/07 07:44:14;;;;;;;6.43;2.38;;;;;;;18.69;74.61;99301.53;4952702;28;20110;-79
2023/08/07 07:46:41;;;;;;;11.00;2.70;;;;;;;18.73;74.62;99301.06;4954145;28;20063;-81
2023/08/07 07:49:07;;;;;;;10.18;2.75;;;;;;;18.81;74.41;99310.13;4954804;28;20145;-77
2023/08/07 07:51:35;;;;;;;5.80;2.33;;;;;;;18.87;74.51;99302.38;4954715;28;20043;-77
2023/08/07 07:54:01;;;;;;;5.38;2.05;;;;;;;18.94;73.79;99310.59;4954727;28;20118;-79
2023/08/07 07:56:44;;;;;;;8.05;2.42;;;;;;;18.98;73.29;99314.63;4952068;28;20531;-78
2023/08/07 07:59:12;;;;;;;7.18;2.35;;;;;;;19.03;72.72;99319.53;4953297;28;20102;-81
2023/08/07 08:01:39;;;;;;;8.43;2.05;;;;;;;19.06;72.92;99321.06;4954034;28;20047;-77
2023/08/07 08:04:06;;;;;;;12.07;2.45;;;;;;;19.10;73.14;99323.25;4954068;28;20061;-79
2023/08/07 08:06:33;;;;;;;11.32;3.03;;;;;;;19.13;73.15;99317.63;4954278;28;20062;-78
2023/08/07 08:09:03;;;;;;;11.18;2.60;;;;;;;19.20;72.83;99330.34;4954268;28;20098;-81
2023/08/07 08:11:31;;;;;;;10.43;3.00;;;;;;;19.25;72.59;99333.41;4937305;29;20520;-77
2023/08/07 08:13:57;;;;;;;9.23;2.83;;;;;;;19.30;72.44;99331.09;4953988;28;20114;-79
2023/08/07 08:16:24;;;;;;;6.28;2.38;;;;;;;19.35;72.46;99342.13;4951627;28;20102;-80
2023/08/07 08:18:50;;;;;;;8.45;2.35;;;;;;;19.37;71.25;99345.47;4954047;28;20086;-79
2023/08/07 08:21:17;;;;;;;10.10;2.75;;;;;;;19.37;70.60;99350.00;4937034;28;20102;-79
2023/08/07 08:23:44;;;;;;;8.05;2.72;;;;;;;19.34;70.70;99351.16;4953953;28;20087;-78
2023/08/07 08:26:10;;;;;;;7.53;2.70;;;;;;;19.33;71.05;99353.97;4953690;28;20054;-81
2023/08/07 08:28:38;;;;;;;6.60;2.22;;;;;;;19.33;71.82;99338.78;4953527;28;20131;-79
2023/08/07 08:31:05;;;;;;;6.70;2.20;;;;;;;19.39;71.58;99350.66;4936727;28;20133;-78
2023/08/07 08:33:36;;;;;;;7.85;2.60;;;;;;;19.43;69.89;99365.38;4936615;29;20456;-78
2023/08/07 08:36:03;;;;;;;4.10;1.60;;;;;;;19.48;70.10;99370.25;4953035;28;20051;-78
2023/08/07 08:38:32;;;;;;;5.78;1.85;;;;;;;19.46;69.59;99373.09;4972439;28;20082;-77
2023/08/07 08:41:02;;;;;;;5.95;2.33;;;;;;;19.39;68.94;99382.69;4972050;28;20054;-79
2023/08/07 08:43:32;;;;;;;6.60;1.98;;;;;;;19.32;68.70;99385.13;4951920;28;20055;-77
2023/08/07 08:46:00;;;;;;;10.30;2.58;;;;;;;19.24;69.26;99390.41;4972876;28;20105;-79
2023/08/07 08:48:31;;;;;;;7.25;2.50;;;;;;;19.15;69.68;99373.50;4955071;28;20129;-78
2023/08/07 08:50:58;;;;;;;5.28;2.22;;;;;;;19.09;70.42;99384.75;4972768;28;20722;-78
2023/08/07 08:53:25;;;;;;;5.57;2.40;;;;;;;19.06;70.88;99380.56;4972148;28;20101;-77
2023/08/07 08:55:52;;;;;;;7.88;2.35;;;;;;;19.06;71.61;99385.91;4955490;28;20082;-77
2023/08/07 08:58:20;;;;;;;9.82;2.40;;;;;;;19.10;72.19;99387.28;4972574;28;20133;-80
2023/08/07 09:00:47;;;;;;;9.07;2.53;;;;;;;19.19;72.76;99390.88;4955378;28;20134;-77
2023/08/07 09:03:14;;;;;;;5.82;2.20;;;;;;;19.29;72.34;99390.81;4972025;28;20125;-77
2023/08/07 09:05:41;;;;;;;4.40;1.75;;;;;;;19.38;72.06;99394.38;4953174;28;20050;-79
2023/08/07 09:08:09;;;;;;;6.35;2.08;;;;;;;19.49;70.86;99393.28;4971637;28;20118;-78
2023/08/07 09:10:36;;;;;;;5.63;2.45;;;;;;;19.56;70.36;99394.34;4972322;28;20069;-80
2023/08/07 09:13:05;;;;;;;9.48;2.10;;;;;;;19.62;69.80;99403.59;4971879;28;20114;-78
2023/08/07 09:15:33;;;;;;;7.10;2.22;;;;;;;19.67;70.62;99395.94;4954903;28;20054;-78
2023/08/07 09:18:01;;;;;;;5.28;2.05;;;;;;;19.76;70.09;99396.81;4971549;28;20054;-78
2023/08/07 09:20:28;;;;;;;5.80;2.13;;;;;;;19.82;69.84;99393.53;4972207;28;20656;-77
2023/08/07 09:22:55;;;;;;;8.45;2.05;;;;;;;19.86;68.86;99404.72;4954917;28;20046;-79
2023/08/07 09:25:32;;;;;;;5.03;1.70;;;;;;;19.85;67.22;99411.91;4971899;28;20062;-80
2023/08/07 09:28:06;;;;;;;7.15;2.00;;;;;;;19.87;67.77;99401.91;4971365;28;20054;-77
2023/08/07 09:30:35;;;;;;;6.18;2.55;;;;;;;19.86;68.04;99413.59;4972065;28;20039;-80
2023/08/07 09:33:02;;;;;;;4.18;2.20;;;;;;;19.81;67.38;99434.56;4972148;28;20081;-80
2023/08/07 09:35:31;;;;;;;4.78;1.92;;;;;;;19.70;66.48;99434.84;4972256;28;20051;-83
2023/08/07 09:37:58;;;;;;;4.28;1.40;;;;;;;19.55;65.74;99438.03;4971536;28;20090;-78
2023/08/07 09:40:25;;;;;;;3.10;1.30;;;;;;;19.40;66.56;99454.59;4971987;28;20455;-78
2023/08/07 09:42:53;;;;;;;3.13;1.33;;;;;;;19.24;66.72;99439.28;4972064;28;20047;-79
2023/08/07 09:45:25;;;;;;;3.80;1.23;;;;;;;19.08;66.28;99445.28;4971441;28;20114;-80
2023/08/07 09:48:02;;;;;;;4.82;1.67;;;;;;;18.97;67.16;99445.47;4971503;28;20046;-78
2023/08/07 09:50:31;;;;;;;5.78;1.73;;;;;;;18.93;68.26;99438.75;4971889;28;20078;-76
2023/08/07 09:52:58;;;;;;;3.30;1.55;;;;;;;18.90;68.59;99447.91;4971861;28;20059;-83
2023/08/07 09:55:25;;;;;;;4.68;1.60;;;;;;;18.89;69.01;99444.38;4971473;28;20055;-77
2023/08/07 09:57:52;;;;;;;2.33;1.42;;;;;;;18.91;69.85;99452.22;4971579;28;20051;-81
2023/08/07 10:00:20;;;;;;;4.25;1.50;;;;;;;18.95;69.21;99455.47;4971688;28;20086;-78
2023/08/07 10:02:48;;;;;;;5.55;2.08;;;;;;;19.00;69.49;99451.34;4971429;28;20126;-78
2023/08/07 10:05:16;;;;;;;7.03;2.08;;;;;;;19.07;69.32;99461.44;4954314;28;20055;-78
2023/08/07 10:07:43;;;;;;;5.70;2.20;;;;;;;19.15;69.08;99461.53;4971347;28;20119;-78
2023/08/07 10:10:10;;;;;;;2.78;1.58;;;;;;;19.25;69.50;99456.13;4969757;28;20496;-78
2023/08/07 10:12:38;;;;;;;4.57;1.70;;;;;;;19.36;68.99;99455.09;4971325;28;20039;-78
2023/08/07 10:15:05;;;;;;;6.38;2.20;;;;;;;19.49;68.49;99465.34;4971145;28;20081;-80
2023/08/07 10:17:32;;;;;;;5.05;1.90;;;;;;;19.62;68.34;99465.81;4951461;28;20051;-78
2023/08/07 10:19:59;;;;;;;3.85;2.03;;;;;;;19.71;67.91;99500.59;4951611;28;20806;-77
2023/08/07 10:22:28;;;;;;;6.18;2.50;;;;;;;19.75;67.04;99499.28;4952152;28;20058;-82
2023/08/07 10:24:57;;;;;;;4.80;2.40;;;;;;;19.70;64.13;99528.28;4955677;28;20146;-80
2023/08/07 10:27:25;;;;;;;6.50;2.50;;;;;;;19.59;64.11;99524.03;4955860;28;20130;-81
2023/08/07 10:29:54;;;;;;;5.93;2.13;;;;;;;19.39;64.25;99518.81;4938998;29;20126;-78
2023/08/07 10:32:24;;;;;;;6.10;1.92;;;;;;;19.22;64.64;99523.13;4954221;28;20055;-79
2023/08/07 10:34:50;;;;;;;9.52;2.90;;;;;;;19.07;65.73;99515.66;4956206;28;20059;-79
2023/08/07 10:37:51;;;;;;;8.82;2.55;;;;;;;18.90;65.93;99509.22;4954395;28;20050;-78
2023/08/07 10:40:19;;;;;;;10.02;2.90;;;;;;;18.95;67.79;99514.13;4931000;28;20098;-79
2023/08/07 10:43:13;;;;;;;5.93;2.42;;;;;;;18.95;67.52;99516.81;4967097;28;20046;-77
2023/08/07 10:45:40;;;;;;;7.57;2.35;;;;;;;19.09;69.21;99516.31;4969334;28;20051;-78
2023/08/07 10:48:11;;;;;;;12.15;3.05;;;;;;;19.23;69.97;99522.16;4973925;28;20094;-79
2023/08/07 10:51:03;;;;;;;7.70;2.72;;;;;;;19.36;67.49;99511.94;4975010;28;20054;-78
2023/08/07 10:53:32;;;;;;;9.23;2.95;;;;;;;19.61;69.80;99503.34;4975258;28;20141;-79
2023/08/07 10:56:03;;;;;;;9.88;3.67;;;;;;;19.83;69.59;99518.06;4974894;28;20110;-78
2023/08/07 10:58:33;;;;;;;8.05;2.88;;;;;;;20.07;69.50;99503.25;4974099;28;20190;-79
2023/08/07 11:01:19;;;;;;;10.23;3.42;;;;;;;20.28;66.00;99510.91;4975080;28;20058;-77
2023/08/07 11:04:13;;;;;;;8.73;3.10;;;;;;;20.51;65.74;99505.03;4975068;28;20056;-77
2023/08/07 11:06:44;;;;;;;6.95;2.35;;;;;;;20.78;65.93;99505.81;4946799;28;20110;-77
2023/08/07 11:09:12;;;;;;;6.88;2.58;;;;;;;21.01;67.07;99504.44;4954612;28;20564;-81
2023/08/07 11:11:40;;;;;;;6.47;2.47;;;;;;;21.32;68.03;99502.03;4955497;28;20059;-78
2023/08/07 11:14:18;;;;;;;10.70;2.90;;;;;;;21.71;64.00;99494.34;4955381;28;20059;-78
2023/08/07 11:16:48;;;;;;;6.28;2.45;;;;;;;22.19;65.07;99502.56;4955027;28;20538;-79
2023/08/07 11:19:16;;;;;;;5.00;2.45;;;;;;;22.54;61.77;99507.69;4955360;28;20122;-79
2023/08/07 11:21:43;;;;;;;8.65;2.80;;;;;;;22.70;59.34;99512.22;4955468;28;20117;-80
2023/08/07 11:24:13;;;;;;;7.38;2.70;;;;;;;22.72;57.54;99525.47;4955127;28;20079;-76
2023/08/07 11:26:42;;;;;;;7.15;2.50;;;;;;;22.79;59.53;99518.38;4954791;28;20047;-79
2023/08/07 11:29:09;;;;;;;5.32;1.98;;;;;;;22.94;60.07;99513.13;4952627;28;20062;-80
2023/08/07 11:31:38;;;;;;;8.75;2.78;;;;;;;23.16;59.72;99526.75;4973041;28;20126;-80
2023/08/07 11:34:05;;;;;;;9.07;2.58;;;;;;;23.33;56.32;99511.41;4974287;28;20066;-79
2023/08/07 11:36:33;;;;;;;5.53;2.08;;;;;;;23.37;55.10;99522.66;4973182;28;20074;-80
2023/08/07 11:39:00;;;;;;;7.78;2.63;;;;;;;23.28;54.43;99525.34;4974024;28;20665;-79
2023/08/07 11:41:31;;;;;;;7.40;2.40;;;;;;;23.07;53.67;99525.13;4973223;28;20050;-85